Cygnus Pena — XPD6757 — position and weather

sailwx.info

Track history (hours):
 
Tides and Currents Weather Stations Pressure Air Temp Water Temp Dewpoint Dewpoint Depression Visibility Wind Speed Wind Dir Waves Ship Positions

Cygnus Pena

Last reported at 2017-Sep-20 09:10 UTC. Time now 2017-Nov-19 18:22 UTC.
Position N 37°07' W 008°41'.
Warning: this ship's position is months out of date.

Length 15 m.

Type: Sailing vessel. MMSI: 219008518.

Date/timePositionNaut miles runAvg speedWind from/ knotsBaromVisibWave heightAir tempDewpointWater temp
2017-Sep-20 09:10N 37°07' W 008°41'0 0.0
2017-Sep-20 08:55N 37°07' W 008°41'0 0.0
2017-Sep-20 08:28N 37°07' W 008°41'  
2017-Sep-18 04:13N 37°06' W 008°40'0 1.9
2017-Sep-18 04:00N 37°06' W 008°40'3 6.0
2017-Sep-18 03:30N 37°05' W 008°37'4 7.2
2017-Sep-18 03:00N 37°04' W 008°32'3 6.9
2017-Sep-18 02:30N 37°03' W 008°28'4 7.3
2017-Sep-18 02:00N 37°02' W 008°24'4 7.2
2017-Sep-18 01:30N 37°00' W 008°20'3 6.8
2017-Sep-18 01:00N 36°59' W 008°16'4 7.1
2017-Sep-18 00:30N 36°58' W 008°12'3 6.8
2017-Sep-18 00:00N 36°57' W 008°07'3 6.5
2017-Sep-17 23:30N 36°56' W 008°04'  
Track history (hours):
 
Tides and Currents Weather Stations Pressure Air Temp Water Temp Dewpoint Dewpoint Depression Visibility Wind Speed Wind Dir Waves Ship Positions

Cygnus Pena

Last reported at 2017-Sep-20 09:10 UTC. Time now 2017-Nov-19 18:22 UTC.
Position N 37°07' W 008°41'.
Warning: this ship's position is months out of date.

Length 15 m.

Type: Sailing vessel. MMSI: 219008518.

Date/timePositionNaut miles runAvg speedWind from/ knotsBaromVisibWave heightAir tempDewpointWater temp
2017-Sep-20 09:10N 37°07' W 008°41'0 0.0
2017-Sep-20 08:55N 37°07' W 008°41'0 0.0
2017-Sep-20 08:28N 37°07' W 008°41'  
2017-Sep-18 04:13N 37°06' W 008°40'0 1.9
2017-Sep-18 04:00N 37°06' W 008°40'3 6.0
2017-Sep-18 03:30N 37°05' W 008°37'4 7.2
2017-Sep-18 03:00N 37°04' W 008°32'3 6.9
2017-Sep-18 02:30N 37°03' W 008°28'4 7.3
2017-Sep-18 02:00N 37°02' W 008°24'4 7.2
2017-Sep-18 01:30N 37°00' W 008°20'3 6.8
2017-Sep-18 01:00N 36°59' W 008°16'4 7.1
2017-Sep-18 00:30N 36°58' W 008°12'3 6.8
2017-Sep-18 00:00N 36°57' W 008°07'3 6.5
2017-Sep-17 23:30N 36°56' W 008°04'  

Dump ship's entire track history